createdAt,value
2018-12-02T00:01:18.521Z,73.36
2018-12-02T00:03:45.921Z,73.59
2018-12-02T00:06:13.340Z,74.20
2018-12-02T00:08:40.795Z,73.22
2018-12-02T00:11:08.207Z,73.19
2018-12-02T00:13:35.737Z,73.24
2018-12-02T00:16:03.246Z,73.50
2018-12-02T00:18:30.704Z,73.40
2018-12-02T00:20:58.224Z,73.27
2018-12-02T00:23:25.815Z,73.06
2018-12-02T00:25:53.292Z,72.96
2018-12-02T00:28:20.853Z,73.26
2018-12-02T00:30:48.389Z,72.10
2018-12-02T00:33:15.838Z,72.25
2018-12-02T00:35:43.260Z,71.98
2018-12-02T00:38:10.877Z,72.22
2018-12-02T00:40:38.397Z,72.75
2018-12-02T00:43:07.219Z,73.23
2018-12-02T00:45:35.872Z,73.71
2018-12-02T00:48:04.970Z,73.89
2018-12-02T00:50:32.542Z,73.99
2018-12-02T00:53:00.719Z,74.10
2018-12-02T00:55:32.671Z,72.25
2018-12-02T00:58:00.260Z,72.40
2018-12-02T01:00:27.919Z,72.02
2018-12-02T01:02:55.409Z,72.46
2018-12-02T01:05:23.280Z,72.38
2018-12-02T01:07:50.912Z,71.92
2018-12-02T01:10:20.343Z,72.23
2018-12-02T01:12:49.046Z,72.85
2018-12-02T01:15:17.883Z,72.81
2018-12-02T01:17:45.416Z,73.22
2018-12-02T01:20:15.125Z,73.23
2018-12-02T01:22:42.888Z,72.61
2018-12-02T01:25:11.452Z,73.09
2018-12-02T01:27:39.032Z,73.42
2018-12-02T01:30:12.289Z,74.11
2018-12-02T01:32:40.031Z,73.69
2018-12-02T01:35:08.260Z,73.78
2018-12-02T01:37:35.976Z,74.47
2018-12-02T01:40:04.815Z,74.50
2018-12-02T01:42:32.279Z,74.85
2018-12-02T01:44:59.709Z,75.42
2018-12-02T01:47:27.214Z,76.86
2018-12-02T01:49:54.611Z,77.68
2018-12-02T01:52:22.151Z,78.67
2018-12-02T01:54:49.671Z,79.12
2018-12-02T01:57:17.122Z,79.79
2018-12-02T01:59:44.567Z,80.56
2018-12-02T02:02:12.023Z,80.85
2018-12-02T02:04:39.435Z,81.61
2018-12-02T02:07:06.915Z,82.23
2018-12-02T02:09:34.399Z,81.54
2018-12-02T02:12:01.935Z,81.54
2018-12-02T02:14:29.323Z,81.93
2018-12-02T02:16:56.835Z,81.71
2018-12-02T02:19:24.225Z,81.69
2018-12-02T02:21:51.797Z,81.41
2018-12-02T02:24:19.251Z,81.92
2018-12-02T02:26:46.655Z,82.39
2018-12-02T02:29:14.211Z,82.48
2018-12-02T02:31:41.626Z,82.52
2018-12-02T02:34:09.057Z,82.28
2018-12-02T02:36:36.508Z,82.20
2018-12-02T02:39:06.447Z,81.77
2018-12-02T02:41:33.848Z,81.13
2018-12-02T02:44:01.328Z,80.58
2018-12-02T02:46:28.764Z,80.14
2018-12-02T02:48:56.203Z,79.54
2018-12-02T02:51:23.695Z,79.21
2018-12-02T02:53:51.159Z,79.38
2018-12-02T02:56:18.596Z,79.10
2018-12-02T02:58:46.104Z,78.65
2018-12-02T03:01:13.514Z,78.30
2018-12-02T03:03:40.944Z,78.01
2018-12-02T03:06:08.407Z,77.04
2018-12-02T03:08:35.874Z,77.23
2018-12-02T03:11:03.329Z,77.17
2018-12-02T03:13:30.893Z,76.41
2018-12-02T03:15:58.307Z,76.01
2018-12-02T03:18:25.883Z,76.38
2018-12-02T03:20:53.423Z,75.56
2018-12-02T03:23:20.878Z,76.00
2018-12-02T03:25:48.331Z,75.41
2018-12-02T03:28:15.771Z,75.88
2018-12-02T03:30:43.174Z,76.40
2018-12-02T03:33:10.690Z,75.74
2018-12-02T03:35:38.088Z,75.27
2018-12-02T03:38:06.101Z,75.33
2018-12-02T03:40:33.599Z,75.47
2018-12-02T03:43:01.153Z,75.85
2018-12-02T03:45:28.609Z,75.85
2018-12-02T03:47:56.916Z,75.56
2018-12-02T03:50:24.535Z,75.36
2018-12-02T03:52:51.959Z,75.82
2018-12-02T03:55:19.489Z,76.07
2018-12-02T03:57:47.018Z,75.49
2018-12-02T04:00:16.387Z,75.96
2018-12-02T04:02:43.887Z,76.78
2018-12-02T04:05:12.735Z,77.62
2018-12-02T04:07:40.284Z,78.23
2018-12-02T04:10:11.771Z,79.00
2018-12-02T04:12:39.346Z,79.53
2018-12-02T04:15:08.776Z,80.39
2018-12-02T04:17:36.188Z,80.48
2018-12-02T04:20:04.391Z,80.79
2018-12-02T04:22:31.852Z,81.87
2018-12-02T04:24:59.493Z,82.58
2018-12-02T04:27:26.901Z,82.51
2018-12-02T04:29:54.437Z,82.76
2018-12-02T04:32:21.895Z,82.85
2018-12-02T04:34:49.477Z,83.04
2018-12-02T04:37:16.912Z,83.62
2018-12-02T04:39:44.395Z,83.81
2018-12-02T04:42:11.865Z,84.27
2018-12-02T04:44:39.255Z,84.27
2018-12-02T04:47:06.804Z,84.20
2018-12-02T04:49:34.277Z,83.91
2018-12-02T04:52:01.735Z,84.02
2018-12-02T04:54:29.232Z,83.63
2018-12-02T04:56:56.659Z,84.28
2018-12-02T04:59:24.117Z,84.41
2018-12-02T05:01:52.055Z,85.06
2018-12-02T05:04:19.491Z,84.15
2018-12-02T05:06:46.968Z,84.06
2018-12-02T05:09:14.398Z,84.22
2018-12-02T05:11:41.844Z,84.93
2018-12-02T05:14:09.269Z,85.29
2018-12-02T05:16:36.869Z,85.52
2018-12-02T05:19:04.399Z,85.83
2018-12-02T05:21:31.930Z,85.78
2018-12-02T05:23:59.438Z,85.95
2018-12-02T05:26:29.756Z,85.19
2018-12-02T05:28:57.304Z,85.48
2018-12-02T05:31:24.695Z,85.38
2018-12-02T05:33:52.279Z,85.66
2018-12-02T05:36:19.670Z,85.73
2018-12-02T05:38:47.188Z,85.26
2018-12-02T05:41:14.609Z,85.86
2018-12-02T05:43:42.277Z,86.08
2018-12-02T05:46:09.689Z,86.17
2018-12-02T05:48:37.145Z,86.81
2018-12-02T05:51:05.332Z,86.83
2018-12-02T05:53:32.911Z,86.87
2018-12-02T05:56:00.355Z,86.79
2018-12-02T05:58:27.791Z,86.27
2018-12-02T06:00:55.234Z,86.23
2018-12-02T06:03:22.858Z,86.63
2018-12-02T06:05:50.381Z,86.70
2018-12-02T06:08:17.913Z,86.86
2018-12-02T06:10:45.409Z,86.92
2018-12-02T06:13:12.893Z,87.05
2018-12-02T06:15:40.325Z,87.36
2018-12-02T06:18:07.929Z,87.51
2018-12-02T06:20:35.433Z,88.02
2018-12-02T06:23:02.863Z,88.12
2018-12-02T06:25:30.281Z,88.19
2018-12-02T06:27:57.695Z,88.15
2018-12-02T06:30:28.297Z,87.91
2018-12-02T06:33:00.009Z,87.88
2018-12-02T06:35:27.524Z,87.96
2018-12-02T06:37:55.910Z,88.08
2018-12-02T06:40:25.656Z,87.50
2018-12-02T06:42:53.110Z,87.49
2018-12-02T06:45:21.165Z,87.12
2018-12-02T06:47:48.775Z,87.48
2018-12-02T06:50:18.207Z,87.54
2018-12-02T06:52:45.621Z,87.72
2018-12-02T06:55:41.818Z,88.11
2018-12-02T06:58:18.196Z,87.67
2018-12-02T07:00:57.636Z,87.02
2018-12-02T07:03:38.496Z,87.13
2018-12-02T07:06:06.336Z,87.60
2018-12-02T07:08:33.766Z,87.86
2018-12-02T07:11:01.173Z,88.08
2018-12-02T07:13:28.988Z,88.23
2018-12-02T07:15:56.474Z,88.19
2018-12-02T07:18:27.308Z,88.22
2018-12-02T07:20:57.497Z,87.89
2018-12-02T07:23:29.187Z,87.66
2018-12-02T07:25:59.836Z,87.77
2018-12-02T07:28:27.255Z,87.97
2018-12-02T07:30:54.728Z,87.60
2018-12-02T07:33:22.220Z,87.47
2018-12-02T07:35:49.629Z,87.84
2018-12-02T07:38:26.742Z,87.83
2018-12-02T07:40:55.512Z,87.67
2018-12-02T07:43:23.076Z,87.13
2018-12-02T07:45:50.503Z,87.36
2018-12-02T07:48:17.948Z,87.55
2018-12-02T07:50:45.384Z,87.50
2018-12-02T07:53:12.941Z,87.86
2018-12-02T07:55:40.356Z,87.73
2018-12-02T07:58:13.530Z,87.43
2018-12-02T08:00:40.978Z,87.39
2018-12-02T08:03:08.639Z,87.59
2018-12-02T08:05:36.250Z,87.74
2018-12-02T08:08:04.069Z,87.82
2018-12-02T08:10:31.706Z,87.57
2018-12-02T08:12:59.202Z,87.38
2018-12-02T08:15:26.760Z,87.23
2018-12-02T08:17:54.384Z,87.33
2018-12-02T08:20:21.896Z,87.25
2018-12-02T08:22:51.484Z,86.85
2018-12-02T08:25:18.596Z,87.11
2018-12-02T08:27:46.670Z,87.47
2018-12-02T08:30:17.437Z,87.62
2018-12-02T08:32:44.871Z,87.97
2018-12-02T08:35:13.584Z,87.63
2018-12-02T08:37:42.202Z,87.33
2018-12-02T08:40:11.119Z,86.97
2018-12-02T08:42:39.019Z,86.68
2018-12-02T08:45:08.911Z,86.53
2018-12-02T08:47:36.401Z,86.53
2018-12-02T08:50:06.218Z,86.32
2018-12-02T08:52:33.700Z,86.45
2018-12-02T08:55:01.220Z,85.53
2018-12-02T08:57:28.727Z,85.05
2018-12-02T08:59:56.157Z,85.37
2018-12-02T09:02:23.698Z,84.94
2018-12-02T09:04:51.160Z,85.20
2018-12-02T09:07:18.667Z,85.60
2018-12-02T09:09:46.167Z,85.95
2018-12-02T09:12:13.842Z,85.85
2018-12-02T09:14:41.355Z,86.00
2018-12-02T09:17:08.810Z,85.71
2018-12-02T09:19:36.494Z,85.42
2018-12-02T09:22:04.247Z,85.10
2018-12-02T09:24:31.696Z,85.04
2018-12-02T09:26:59.621Z,85.22
2018-12-02T09:29:27.107Z,85.91
2018-12-02T09:31:54.557Z,85.29
2018-12-02T09:34:22.106Z,84.59
2018-12-02T09:36:49.795Z,84.40
2018-12-02T09:39:18.447Z,84.59
2018-12-02T09:41:44.669Z,84.41
2018-12-02T09:44:12.090Z,84.85
2018-12-02T09:46:39.930Z,84.77
2018-12-02T09:49:07.432Z,85.06
2018-12-02T09:51:34.828Z,85.34
2018-12-02T09:54:02.292Z,86.02
2018-12-02T09:56:29.795Z,85.53
2018-12-02T09:58:57.242Z,84.40
2018-12-02T10:01:24.714Z,85.12
2018-12-02T10:03:52.284Z,85.15
2018-12-02T10:06:19.779Z,84.86
2018-12-02T10:08:47.283Z,85.14
2018-12-02T10:11:14.820Z,84.81
2018-12-02T10:13:42.285Z,84.29
2018-12-02T10:16:15.424Z,84.18
2018-12-02T10:18:37.240Z,84.21
2018-12-02T10:21:05.079Z,84.70
2018-12-02T10:23:32.525Z,85.05
2018-12-02T10:26:00.024Z,84.75
2018-12-02T10:28:27.427Z,85.14
2018-12-02T10:30:54.880Z,85.17
2018-12-02T10:33:22.470Z,85.47
2018-12-02T10:35:49.903Z,85.48
2018-12-02T10:38:17.470Z,85.85
2018-12-02T10:40:44.942Z,86.34
2018-12-02T10:43:12.372Z,86.45
2018-12-02T10:45:39.826Z,86.95
2018-12-02T10:48:10.686Z,87.20
2018-12-02T10:50:38.338Z,87.09
2018-12-02T10:53:08.795Z,87.01
2018-12-02T10:55:40.231Z,87.10
2018-12-02T10:58:09.787Z,87.55
2018-12-02T11:00:42.988Z,87.05
2018-12-02T11:03:10.502Z,86.82
2018-12-02T11:05:38.036Z,86.31
2018-12-02T11:08:05.575Z,85.55
2018-12-02T11:10:33.253Z,85.51
2018-12-02T11:13:00.844Z,85.63
2018-12-02T11:15:28.367Z,85.34
2018-12-02T11:17:55.804Z,85.82
2018-12-02T11:20:23.311Z,86.50
2018-12-02T11:22:50.835Z,86.59
2018-12-02T11:25:18.300Z,86.10
2018-12-02T11:27:45.796Z,85.12
2018-12-02T11:30:14.681Z,85.00
2018-12-02T11:32:42.917Z,85.12
2018-12-02T11:35:13.590Z,84.65
2018-12-02T11:37:41.117Z,84.33
2018-12-02T11:40:12.840Z,84.09
2018-12-02T11:42:40.380Z,84.13
2018-12-02T11:45:11.012Z,83.98
2018-12-02T11:47:39.346Z,84.18
2018-12-02T11:50:12.186Z,84.61
2018-12-02T11:52:39.775Z,84.07
2018-12-02T11:55:08.501Z,83.80
2018-12-02T11:57:36.034Z,83.06
2018-12-02T12:00:10.011Z,83.23
2018-12-02T12:02:37.504Z,83.10
2018-12-02T12:05:05.904Z,83.28
2018-12-02T12:07:33.361Z,83.09
2018-12-02T12:10:00.813Z,83.42
2018-12-02T12:12:28.370Z,83.54
2018-12-02T12:14:55.890Z,83.23
2018-12-02T12:17:23.531Z,82.96
2018-12-02T12:19:51.003Z,83.29
2018-12-02T12:22:18.457Z,83.40
2018-12-02T12:24:45.855Z,83.85
2018-12-02T12:27:13.344Z,83.49
2018-12-02T12:29:40.752Z,83.37
2018-12-02T12:32:08.252Z,82.62
2018-12-02T12:34:35.690Z,81.99
2018-12-02T12:37:03.172Z,81.15
2018-12-02T12:39:30.722Z,79.86
2018-12-02T12:41:58.198Z,78.88
2018-12-02T12:44:25.716Z,78.42
2018-12-02T12:46:53.233Z,78.61
2018-12-02T12:49:20.670Z,78.23
2018-12-02T12:51:48.196Z,78.73
2018-12-02T12:54:15.689Z,79.40
2018-12-02T12:56:43.289Z,80.08
2018-12-02T12:59:10.728Z,80.33
2018-12-02T13:01:38.377Z,80.72
2018-12-02T13:04:05.872Z,80.86
2018-12-02T13:06:33.453Z,80.82
2018-12-02T13:09:00.929Z,81.07
2018-12-02T13:11:28.364Z,81.45
2018-12-02T13:13:55.821Z,81.39
2018-12-02T13:16:23.388Z,81.37
2018-12-02T13:18:50.929Z,81.55
2018-12-02T13:21:18.374Z,81.84
2018-12-02T13:23:45.808Z,80.87
2018-12-02T13:26:14.289Z,81.15
2018-12-02T13:28:41.736Z,80.42
2018-12-02T13:31:09.230Z,79.90
2018-12-02T13:33:36.809Z,80.56
2018-12-02T13:36:04.865Z,80.11
2018-12-02T13:38:32.494Z,79.78
2018-12-02T13:40:59.984Z,80.31
2018-12-02T13:43:27.561Z,80.29
2018-12-02T13:45:55.014Z,81.02
2018-12-02T13:48:22.484Z,81.35
2018-12-02T13:50:49.936Z,80.42
2018-12-02T13:53:17.446Z,80.74
2018-12-02T13:55:45.032Z,81.72
2018-12-02T13:58:12.600Z,81.55
2018-12-02T14:00:41.761Z,81.76
2018-12-02T14:03:13.461Z,81.20
2018-12-02T14:05:44.215Z,81.98
2018-12-02T14:08:11.669Z,82.06
2018-12-02T14:10:39.232Z,82.17
2018-12-02T14:13:13.497Z,82.48
2018-12-02T14:17:53.780Z,82.47
2018-12-02T14:20:21.392Z,81.65
2018-12-02T14:22:48.800Z,81.86
2018-12-02T14:25:16.240Z,81.98
2018-12-02T14:27:45.504Z,82.11
2018-12-02T14:30:15.179Z,82.18
2018-12-02T14:32:42.627Z,81.65
2018-12-02T14:35:10.173Z,81.03
2018-12-02T14:37:38.143Z,81.58
2018-12-02T14:40:10.862Z,81.90
2018-12-02T14:42:39.312Z,82.45
2018-12-02T14:45:11.641Z,82.41
2018-12-02T14:47:39.151Z,82.60
2018-12-02T14:50:10.105Z,82.18
2018-12-02T14:52:37.797Z,82.33
2018-12-02T14:55:07.066Z,82.11
2018-12-02T14:57:34.657Z,82.88
2018-12-02T15:00:02.832Z,82.17
2018-12-02T15:02:30.780Z,82.65
2018-12-02T15:04:58.262Z,83.46
2018-12-02T15:07:25.864Z,83.26
2018-12-02T15:09:53.252Z,82.94
2018-12-02T15:12:20.804Z,83.44
2018-12-02T15:14:48.348Z,83.28
2018-12-02T15:17:47.023Z,83.85
2018-12-02T15:20:15.873Z,83.50
2018-12-02T15:22:43.393Z,83.46
2018-12-02T15:25:13.041Z,83.52
2018-12-02T15:27:41.099Z,84.12
2018-12-02T15:30:11.730Z,83.76
2018-12-02T15:32:39.772Z,83.69
2018-12-02T15:35:08.489Z,83.27
2018-12-02T15:37:35.926Z,82.83
2018-12-02T15:40:04.240Z,83.07
2018-12-02T15:42:31.799Z,83.27
2018-12-02T15:44:59.402Z,83.06
2018-12-02T15:47:26.852Z,82.26
2018-12-02T15:49:54.333Z,82.21
2018-12-02T15:52:21.734Z,82.08
2018-12-02T15:54:49.300Z,82.19
2018-12-02T15:57:16.845Z,81.63
2018-12-02T15:59:44.265Z,82.29
2018-12-02T16:02:11.671Z,81.90
2018-12-02T16:04:39.552Z,81.92
2018-12-02T16:07:07.051Z,81.47
2018-12-02T16:09:34.741Z,82.16
2018-12-02T16:12:02.270Z,81.84
2018-12-02T16:14:29.681Z,81.77
2018-12-02T16:16:57.117Z,82.16
2018-12-02T16:19:24.640Z,82.73
2018-12-02T16:21:52.109Z,82.87
2018-12-02T16:24:19.632Z,82.84
2018-12-02T16:26:47.116Z,82.64
2018-12-02T16:29:14.770Z,82.82
2018-12-02T16:31:42.216Z,82.78
2018-12-02T16:34:09.704Z,83.15
2018-12-02T16:36:37.120Z,82.74
2018-12-02T16:39:08.305Z,82.96
2018-12-02T16:41:35.854Z,83.53
2018-12-02T16:44:03.436Z,84.00
2018-12-02T16:46:30.978Z,83.67
2018-12-02T16:48:58.811Z,83.87
2018-12-02T16:51:26.293Z,84.55
2018-12-02T16:53:53.876Z,84.44
2018-12-02T16:56:21.423Z,84.96
2018-12-02T16:58:55.380Z,85.40
2018-12-02T17:01:24.340Z,85.37
2018-12-02T17:03:54.448Z,84.87
2018-12-02T17:06:22.081Z,84.60
2018-12-02T17:08:49.593Z,84.17
2018-12-02T17:11:17.081Z,83.20
2018-12-02T17:13:44.569Z,82.41
2018-12-02T17:16:12.028Z,82.64
2018-12-02T17:18:39.561Z,81.86
2018-12-02T17:21:07.029Z,82.22
2018-12-02T17:23:34.475Z,82.38
2018-12-02T17:26:02.066Z,82.60
2018-12-02T17:28:29.588Z,82.46
2018-12-02T17:30:58.957Z,82.42
2018-12-02T17:33:26.569Z,82.62
2018-12-02T17:35:54.019Z,82.62
2018-12-02T17:38:22.961Z,82.83
2018-12-02T17:40:50.977Z,82.78
2018-12-02T17:43:18.399Z,82.29
2018-12-02T17:45:45.881Z,82.38
2018-12-02T17:48:13.269Z,82.67
2018-12-02T17:50:40.703Z,83.45
2018-12-02T17:53:10.494Z,84.01
2018-12-02T17:55:37.997Z,84.70
2018-12-02T17:58:05.500Z,84.87
2018-12-02T18:00:33.323Z,85.19
2018-12-02T18:03:01.815Z,85.70
2018-12-02T18:05:32.232Z,85.34
2018-12-02T18:07:59.712Z,85.72
2018-12-02T18:10:27.238Z,86.25
2018-12-02T18:12:54.945Z,86.29
2018-12-02T18:15:22.527Z,86.28
2018-12-02T18:17:50.146Z,86.56
2018-12-02T18:20:18.165Z,86.71
2018-12-02T18:22:46.314Z,87.03
2018-12-02T18:25:14.987Z,86.92
2018-12-02T18:27:42.501Z,86.76
2018-12-02T18:30:16.770Z,86.69
2018-12-02T18:33:00.380Z,86.65
2018-12-02T18:35:30.421Z,86.49
2018-12-02T18:38:01.778Z,86.39
2018-12-02T18:40:28.457Z,86.63
2018-12-02T18:42:55.947Z,86.47
2018-12-02T18:45:23.361Z,86.59
2018-12-02T18:47:50.872Z,86.60
2018-12-02T18:50:18.447Z,86.87
2018-12-02T18:52:45.953Z,86.72
2018-12-02T18:55:13.557Z,86.88
2018-12-02T18:57:41.301Z,86.43
2018-12-02T19:00:18.993Z,86.15
2018-12-02T19:02:47.492Z,86.08
2018-12-02T19:05:15.019Z,86.56
2018-12-02T19:07:42.597Z,86.03
2018-12-02T19:10:12.241Z,85.72
2018-12-02T19:12:39.845Z,86.02
2018-12-02T19:15:09.684Z,86.08
2018-12-02T19:17:37.401Z,85.73
2018-12-02T19:20:09.101Z,85.81
2018-12-02T19:22:36.638Z,86.14
2018-12-02T19:25:05.355Z,86.00
2018-12-02T19:27:32.966Z,86.31
2018-12-02T19:30:01.101Z,86.89
2018-12-02T19:32:28.718Z,86.65
2018-12-02T19:34:56.281Z,87.08
2018-12-02T19:37:23.741Z,86.98
2018-12-02T19:39:51.372Z,86.51
2018-12-02T19:42:18.810Z,86.57
2018-12-02T19:44:46.360Z,85.73
2018-12-02T19:47:13.848Z,85.93
2018-12-02T19:49:41.297Z,86.11
2018-12-02T19:52:08.918Z,86.05
2018-12-02T19:54:36.422Z,86.08
2018-12-02T19:57:04.460Z,86.33
2018-12-02T19:59:32.120Z,86.76
2018-12-02T20:01:59.806Z,86.65
2018-12-02T20:04:27.344Z,86.22
2018-12-02T20:06:54.868Z,85.67
2018-12-02T20:09:22.469Z,85.52
2018-12-02T20:11:50.030Z,85.46
2018-12-02T20:14:17.559Z,85.87
2018-12-02T20:16:45.076Z,85.40
2018-12-02T20:19:18.191Z,85.23
2018-12-02T20:21:45.789Z,85.53
2018-12-02T20:24:18.981Z,85.32
2018-12-02T20:26:46.579Z,85.30
2018-12-02T20:29:14.017Z,85.86
2018-12-02T20:31:41.473Z,86.33
2018-12-02T20:34:08.947Z,86.51
2018-12-02T20:36:36.572Z,87.17
2018-12-02T20:39:08.152Z,87.61
2018-12-02T20:41:35.648Z,87.43
2018-12-02T20:44:04.146Z,87.36
2018-12-02T20:46:31.698Z,87.43
2018-12-02T20:49:06.290Z,87.36
2018-12-02T20:51:33.814Z,87.42
2018-12-02T20:54:01.248Z,87.44
2018-12-02T20:56:28.746Z,87.49
2018-12-02T20:58:56.179Z,87.19
2018-12-02T21:01:23.683Z,87.99
2018-12-02T21:03:51.170Z,87.72
2018-12-02T21:06:20.045Z,87.87
2018-12-02T21:08:47.509Z,87.96
2018-12-02T21:11:15.099Z,88.08
2018-12-02T21:13:42.521Z,88.12
2018-12-02T21:16:10.023Z,87.93
2018-12-02T21:18:37.599Z,87.77
2018-12-02T21:21:05.243Z,87.61
2018-12-02T21:23:32.897Z,87.83
2018-12-02T21:26:00.773Z,87.80
2018-12-02T21:28:28.269Z,87.54
2018-12-02T21:30:55.904Z,87.84
2018-12-02T21:33:23.377Z,87.70
2018-12-02T21:35:51.514Z,87.26
2018-12-02T21:38:19.085Z,87.64
2018-12-02T21:40:46.611Z,87.83
2018-12-02T21:43:14.042Z,87.66
2018-12-02T21:45:41.519Z,87.72
2018-12-02T21:48:12.771Z,87.25
2018-12-02T21:50:40.264Z,87.22
2018-12-02T21:53:07.777Z,87.35
2018-12-02T21:55:35.338Z,87.69
2018-12-02T21:58:02.818Z,87.92
2018-12-02T22:00:36.209Z,87.66
2018-12-02T22:03:03.785Z,87.98
2018-12-02T22:05:31.315Z,88.23
2018-12-02T22:07:58.977Z,87.93
2018-12-02T22:10:30.646Z,87.79
2018-12-02T22:12:58.347Z,87.28
2018-12-02T22:15:25.840Z,87.11
2018-12-02T22:17:53.314Z,87.31
2018-12-02T22:20:20.866Z,87.19
2018-12-02T22:22:48.307Z,87.05
2018-12-02T22:25:18.763Z,86.75
2018-12-02T22:27:47.456Z,86.66
2018-12-02T22:30:16.876Z,87.08
2018-12-02T22:32:44.384Z,86.98
2018-12-02T22:35:12.925Z,87.26
2018-12-02T22:37:40.600Z,87.27
2018-12-02T22:40:10.403Z,86.83
2018-12-02T22:42:37.911Z,86.90
2018-12-02T22:45:12.138Z,86.94
2018-12-02T22:47:39.634Z,86.69
2018-12-02T22:50:10.129Z,86.57
2018-12-02T22:52:37.725Z,86.60
2018-12-02T22:55:07.136Z,86.96
2018-12-02T22:57:34.893Z,87.59
2018-12-02T23:00:02.426Z,87.87
2018-12-02T23:02:34.453Z,88.10
2018-12-02T23:05:01.967Z,87.65
2018-12-02T23:07:29.435Z,88.16
2018-12-02T23:09:56.927Z,88.16
2018-12-02T23:12:24.410Z,88.20
2018-12-02T23:14:51.974Z,88.58
2018-12-02T23:17:21.518Z,88.86
2018-12-02T23:19:49.009Z,88.87
2018-12-02T23:22:16.550Z,89.04
2018-12-02T23:24:44.081Z,88.52
2018-12-02T23:27:11.536Z,88.58
2018-12-02T23:29:39.108Z,88.54
2018-12-02T23:32:06.616Z,88.36
2018-12-02T23:34:34.201Z,88.14
2018-12-02T23:37:01.760Z,88.05
2018-12-02T23:39:29.227Z,88.42
2018-12-02T23:41:56.686Z,88.96
2018-12-02T23:44:24.290Z,88.45
2018-12-02T23:46:51.829Z,88.34
2018-12-02T23:49:19.351Z,88.60
2018-12-02T23:51:47.149Z,89.02
2018-12-02T23:54:14.701Z,89.33
2018-12-02T23:56:42.245Z,89.90
2018-12-02T23:59:10.073Z,90.04
